sensor_id;sensor_type;location;lat;lon;timestamp;temperature;humidity
60701;DHT22;46541;49.894;10.886;2022-12-17T00:02:02;-2.90;99.90
60701;DHT22;46541;49.894;10.886;2022-12-17T00:04:48;-3.00;99.90
60701;DHT22;46541;49.894;10.886;2022-12-17T00:07:34;-3.00;99.90
60701;DHT22;46541;49.894;10.886;2022-12-17T00:10:21;-3.00;99.90
60701;DHT22;46541;49.894;10.886;2022-12-17T00:13:17;-3.10;99.90
60701;DHT22;46541;49.894;10.886;2022-12-17T00:16:04;-3.10;99.90
60701;DHT22;46541;49.894;10.886;2022-12-17T00:18:49;-3.10;99.90
60701;DHT22;46541;49.894;10.886;2022-12-17T00:21:35;-3.20;99.90
60701;DHT22;46541;49.894;10.886;2022-12-17T00:24:22;-3.30;99.90
60701;DHT22;46541;49.894;10.886;2022-12-17T00:27:07;-3.30;99.90
60701;DHT22;46541;49.894;10.886;2022-12-17T00:29:53;-3.20;99.90
60701;DHT22;46541;49.894;10.886;2022-12-17T00:32:38;-3.20;99.90
60701;DHT22;46541;49.894;10.886;2022-12-17T00:35:23;-3.20;99.90
60701;DHT22;46541;49.894;10.886;2022-12-17T00:38:16;-3.30;99.90
60701;DHT22;46541;49.894;10.886;2022-12-17T00:41:02;-3.40;99.90
60701;DHT22;46541;49.894;10.886;2022-12-17T00:43:47;-3.40;99.90
60701;DHT22;46541;49.894;10.886;2022-12-17T00:46:33;-3.50;99.90
60701;DHT22;46541;49.894;10.886;2022-12-17T00:49:18;-3.40;99.90
60701;DHT22;46541;49.894;10.886;2022-12-17T00:52:03;-3.40;99.90
60701;DHT22;46541;49.894;10.886;2022-12-17T00:54:49;-3.40;99.90
60701;DHT22;46541;49.894;10.886;2022-12-17T00:57:34;-3.40;99.90
60701;DHT22;46541;49.894;10.886;2022-12-17T01:00:22;-3.40;99.90
60701;DHT22;46541;49.894;10.886;2022-12-17T01:03:09;-3.40;99.90
60701;DHT22;46541;49.894;10.886;2022-12-17T01:05:55;-3.50;99.90
60701;DHT22;46541;49.894;10.886;2022-12-17T01:08:40;-3.50;99.90
60701;DHT22;46541;49.894;10.886;2022-12-17T01:11:26;-3.50;99.90
60701;DHT22;46541;49.894;10.886;2022-12-17T01:14:11;-3.50;99.90
60701;DHT22;46541;49.894;10.886;2022-12-17T01:16:57;-3.50;99.90
60701;DHT22;46541;49.894;10.886;2022-12-17T01:19:42;-3.50;99.90
60701;DHT22;46541;49.894;10.886;2022-12-17T01:22:27;-3.50;99.90
60701;DHT22;46541;49.894;10.886;2022-12-17T01:25:13;-3.50;99.90
60701;DHT22;46541;49.894;10.886;2022-12-17T01:27:58;-3.50;99.90
60701;DHT22;46541;49.894;10.886;2022-12-17T01:30:44;-3.50;99.90
60701;DHT22;46541;49.894;10.886;2022-12-17T01:33:29;-3.60;99.90
60701;DHT22;46541;49.894;10.886;2022-12-17T01:36:15;-3.60;99.90
60701;DHT22;46541;49.894;10.886;2022-12-17T01:39:00;-3.70;99.90
60701;DHT22;46541;49.894;10.886;2022-12-17T01:41:45;-3.70;99.90
60701;DHT22;46541;49.894;10.886;2022-12-17T01:47:52;-3.70;99.90
60701;DHT22;46541;49.894;10.886;2022-12-17T01:50:49;-3.80;99.90
60701;DHT22;46541;49.894;10.886;2022-12-17T01:53:53;-3.90;99.90
60701;DHT22;46541;49.894;10.886;2022-12-17T01:56:41;-3.90;99.90
60701;DHT22;46541;49.894;10.886;2022-12-17T02:02:40;-3.90;99.90
60701;DHT22;46541;49.894;10.886;2022-12-17T02:05:38;-4.00;99.90
60701;DHT22;46541;49.894;10.886;2022-12-17T02:08:34;-4.00;99.90
60701;DHT22;46541;49.894;10.886;2022-12-17T02:14:43;-4.10;99.90
60701;DHT22;46541;49.894;10.886;2022-12-17T02:17:43;-4.10;99.90
60701;DHT22;46541;49.894;10.886;2022-12-17T02:20:37;-4.20;99.90
60701;DHT22;46541;49.894;10.886;2022-12-17T02:29:20;-4.10;99.90
60701;DHT22;46541;49.894;10.886;2022-12-17T02:32:09;-4.10;99.90
60701;DHT22;46541;49.894;10.886;2022-12-17T02:34:55;-4.10;99.90
60701;DHT22;46541;49.894;10.886;2022-12-17T02:37:48;-4.10;99.90
60701;DHT22;46541;49.894;10.886;2022-12-17T02:40:37;-4.20;99.90
60701;DHT22;46541;49.894;10.886;2022-12-17T02:43:24;-4.20;99.90
60701;DHT22;46541;49.894;10.886;2022-12-17T02:46:11;-4.20;99.90
60701;DHT22;46541;49.894;10.886;2022-12-17T02:48:56;-4.20;99.90
60701;DHT22;46541;49.894;10.886;2022-12-17T02:51:42;-4.20;99.90
60701;DHT22;46541;49.894;10.886;2022-12-17T02:54:32;-4.20;99.90
60701;DHT22;46541;49.894;10.886;2022-12-17T02:57:19;-4.20;99.90
60701;DHT22;46541;49.894;10.886;2022-12-17T03:00:09;-4.20;99.90
60701;DHT22;46541;49.894;10.886;2022-12-17T03:02:55;-4.20;99.90
60701;DHT22;46541;49.894;10.886;2022-12-17T03:05:40;-4.20;99.90
60701;DHT22;46541;49.894;10.886;2022-12-17T03:08:26;-4.20;99.90
60701;DHT22;46541;49.894;10.886;2022-12-17T03:11:11;-4.20;99.90
60701;DHT22;46541;49.894;10.886;2022-12-17T03:13:57;-4.10;99.90
60701;DHT22;46541;49.894;10.886;2022-12-17T03:16:42;-4.20;99.90
60701;DHT22;46541;49.894;10.886;2022-12-17T03:19:27;-4.20;99.90
60701;DHT22;46541;49.894;10.886;2022-12-17T03:22:13;-4.30;99.90
60701;DHT22;46541;49.894;10.886;2022-12-17T03:24:58;-4.30;99.90
60701;DHT22;46541;49.894;10.886;2022-12-17T03:27:44;-4.30;99.90
60701;DHT22;46541;49.894;10.886;2022-12-17T03:30:29;-4.40;99.90
60701;DHT22;46541;49.894;10.886;2022-12-17T03:33:15;-4.40;99.90
60701;DHT22;46541;49.894;10.886;2022-12-17T03:36:01;-4.40;99.90
60701;DHT22;46541;49.894;10.886;2022-12-17T03:38:46;-4.50;99.90
60701;DHT22;46541;49.894;10.886;2022-12-17T03:41:31;-4.50;99.90
60701;DHT22;46541;49.894;10.886;2022-12-17T03:44:17;-4.50;99.90
60701;DHT22;46541;49.894;10.886;2022-12-17T03:47:02;-4.50;99.90
60701;DHT22;46541;49.894;10.886;2022-12-17T03:49:48;-4.40;99.90
60701;DHT22;46541;49.894;10.886;2022-12-17T03:52:33;-4.40;99.90
60701;DHT22;46541;49.894;10.886;2022-12-17T03:55:38;-4.50;99.90
60701;DHT22;46541;49.894;10.886;2022-12-17T03:58:24;-4.50;99.90
60701;DHT22;46541;49.894;10.886;2022-12-17T04:01:09;-4.60;99.90
60701;DHT22;46541;49.894;10.886;2022-12-17T04:03:54;-4.60;99.90
60701;DHT22;46541;49.894;10.886;2022-12-17T04:06:40;-4.60;99.90
60701;DHT22;46541;49.894;10.886;2022-12-17T04:09:25;-4.60;99.90
60701;DHT22;46541;49.894;10.886;2022-12-17T04:12:11;-4.50;99.90
60701;DHT22;46541;49.894;10.886;2022-12-17T04:14:56;-4.60;99.90
60701;DHT22;46541;49.894;10.886;2022-12-17T04:17:41;-4.60;99.90
60701;DHT22;46541;49.894;10.886;2022-12-17T04:20:27;-4.60;99.90
60701;DHT22;46541;49.894;10.886;2022-12-17T04:23:12;-4.60;99.90
60701;DHT22;46541;49.894;10.886;2022-12-17T04:25:58;-4.60;99.90
60701;DHT22;46541;49.894;10.886;2022-12-17T04:28:43;-4.70;99.90
60701;DHT22;46541;49.894;10.886;2022-12-17T04:31:28;-4.70;99.90
60701;DHT22;46541;49.894;10.886;2022-12-17T04:34:14;-4.70;99.90
60701;DHT22;46541;49.894;10.886;2022-12-17T04:36:59;-4.70;99.90
60701;DHT22;46541;49.894;10.886;2022-12-17T04:39:59;-4.80;99.90
60701;DHT22;46541;49.894;10.886;2022-12-17T04:42:44;-4.80;99.90
60701;DHT22;46541;49.894;10.886;2022-12-17T04:45:29;-4.90;99.90
60701;DHT22;46541;49.894;10.886;2022-12-17T04:48:15;-5.00;99.90
60701;DHT22;46541;49.894;10.886;2022-12-17T04:51:01;-5.00;99.90
60701;DHT22;46541;49.894;10.886;2022-12-17T04:53:46;-4.90;99.90
60701;DHT22;46541;49.894;10.886;2022-12-17T04:56:36;-5.00;99.90
60701;DHT22;46541;49.894;10.886;2022-12-17T04:59:21;-5.10;99.90
60701;DHT22;46541;49.894;10.886;2022-12-17T05:02:21;-5.10;99.90
60701;DHT22;46541;49.894;10.886;2022-12-17T05:05:09;-5.20;99.90
60701;DHT22;46541;49.894;10.886;2022-12-17T05:07:55;-5.20;99.90
60701;DHT22;46541;49.894;10.886;2022-12-17T05:10:41;-5.10;99.90
60701;DHT22;46541;49.894;10.886;2022-12-17T05:13:27;-5.20;99.90
60701;DHT22;46541;49.894;10.886;2022-12-17T05:16:12;-5.20;99.90
60701;DHT22;46541;49.894;10.886;2022-12-17T05:18:58;-5.20;99.90
60701;DHT22;46541;49.894;10.886;2022-12-17T05:21:43;-5.20;99.90
60701;DHT22;46541;49.894;10.886;2022-12-17T05:24:29;-5.10;99.90
60701;DHT22;46541;49.894;10.886;2022-12-17T05:27:14;-5.10;99.90
60701;DHT22;46541;49.894;10.886;2022-12-17T05:29:59;-5.10;99.90
60701;DHT22;46541;49.894;10.886;2022-12-17T05:32:45;-5.20;99.90
60701;DHT22;46541;49.894;10.886;2022-12-17T05:35:30;-5.20;99.90
60701;DHT22;46541;49.894;10.886;2022-12-17T05:38:15;-5.10;99.90
60701;DHT22;46541;49.894;10.886;2022-12-17T05:41:01;-5.20;99.90
60701;DHT22;46541;49.894;10.886;2022-12-17T05:43:46;-5.20;99.90
60701;DHT22;46541;49.894;10.886;2022-12-17T05:46:32;-5.20;99.90
60701;DHT22;46541;49.894;10.886;2022-12-17T05:49:17;-5.20;99.90
60701;DHT22;46541;49.894;10.886;2022-12-17T05:52:03;-5.10;99.90
60701;DHT22;46541;49.894;10.886;2022-12-17T05:54:48;-5.20;99.90
60701;DHT22;46541;49.894;10.886;2022-12-17T05:57:34;-5.20;99.90
60701;DHT22;46541;49.894;10.886;2022-12-17T06:00:22;-5.30;99.90
60701;DHT22;46541;49.894;10.886;2022-12-17T06:03:07;-5.40;99.90
60701;DHT22;46541;49.894;10.886;2022-12-17T06:05:55;-5.40;99.90
60701;DHT22;46541;49.894;10.886;2022-12-17T06:08:41;-5.40;99.90
60701;DHT22;46541;49.894;10.886;2022-12-17T06:11:26;-5.40;99.90
60701;DHT22;46541;49.894;10.886;2022-12-17T06:14:12;-5.40;99.90
60701;DHT22;46541;49.894;10.886;2022-12-17T06:16:57;-5.40;99.90
60701;DHT22;46541;49.894;10.886;2022-12-17T06:19:43;-5.40;99.90
60701;DHT22;46541;49.894;10.886;2022-12-17T06:22:28;-5.40;99.90
60701;DHT22;46541;49.894;10.886;2022-12-17T06:25:14;-5.40;99.90
60701;DHT22;46541;49.894;10.886;2022-12-17T06:28:07;-5.50;99.90
60701;DHT22;46541;49.894;10.886;2022-12-17T06:30:53;-5.60;99.90
60701;DHT22;46541;49.894;10.886;2022-12-17T06:33:39;-5.60;99.90
60701;DHT22;46541;49.894;10.886;2022-12-17T06:36:25;-5.70;99.90
60701;DHT22;46541;49.894;10.886;2022-12-17T06:39:11;-5.70;99.90
60701;DHT22;46541;49.894;10.886;2022-12-17T06:41:56;-5.60;99.90
60701;DHT22;46541;49.894;10.886;2022-12-17T06:44:42;-5.70;99.90
60701;DHT22;46541;49.894;10.886;2022-12-17T06:47:27;-5.70;99.90
60701;DHT22;46541;49.894;10.886;2022-12-17T06:50:13;-5.70;99.90
60701;DHT22;46541;49.894;10.886;2022-12-17T06:53:03;-5.70;99.90
60701;DHT22;46541;49.894;10.886;2022-12-17T06:55:49;-5.70;99.90
60701;DHT22;46541;49.894;10.886;2022-12-17T06:58:34;-5.60;99.90
60701;DHT22;46541;49.894;10.886;2022-12-17T07:01:27;-5.60;99.90
60701;DHT22;46541;49.894;10.886;2022-12-17T07:04:13;-5.60;99.90
60701;DHT22;46541;49.894;10.886;2022-12-17T07:06:59;-5.60;99.90
60701;DHT22;46541;49.894;10.886;2022-12-17T07:09:44;-5.50;99.90
60701;DHT22;46541;49.894;10.886;2022-12-17T07:12:39;-5.50;99.90
60701;DHT22;46541;49.894;10.886;2022-12-17T07:15:24;-5.50;99.90
60701;DHT22;46541;49.894;10.886;2022-12-17T07:18:10;-5.60;99.90
60701;DHT22;46541;49.894;10.886;2022-12-17T07:20:55;-5.60;99.90
60701;DHT22;46541;49.894;10.886;2022-12-17T07:23:40;-5.70;99.90
60701;DHT22;46541;49.894;10.886;2022-12-17T07:26:26;-5.60;99.90
60701;DHT22;46541;49.894;10.886;2022-12-17T07:29:11;-5.70;99.90
60701;DHT22;46541;49.894;10.886;2022-12-17T07:31:57;-5.70;99.90
60701;DHT22;46541;49.894;10.886;2022-12-17T07:34:42;-5.70;99.90
60701;DHT22;46541;49.894;10.886;2022-12-17T07:37:28;-5.60;99.90
60701;DHT22;46541;49.894;10.886;2022-12-17T07:40:13;-5.60;99.90
60701;DHT22;46541;49.894;10.886;2022-12-17T07:43:16;-5.60;99.90
60701;DHT22;46541;49.894;10.886;2022-12-17T07:46:02;-5.60;99.90
60701;DHT22;46541;49.894;10.886;2022-12-17T07:48:47;-5.50;99.90
60701;DHT22;46541;49.894;10.886;2022-12-17T07:51:32;-5.40;99.90
60701;DHT22;46541;49.894;10.886;2022-12-17T07:54:18;-5.40;99.90
60701;DHT22;46541;49.894;10.886;2022-12-17T07:57:03;-5.30;99.90
60701;DHT22;46541;49.894;10.886;2022-12-17T07:59:49;-5.30;99.90
60701;DHT22;46541;49.894;10.886;2022-12-17T08:02:34;-5.40;99.90
60701;DHT22;46541;49.894;10.886;2022-12-17T08:05:20;-5.40;99.90
60701;DHT22;46541;49.894;10.886;2022-12-17T08:08:07;-5.40;99.90
60701;DHT22;46541;49.894;10.886;2022-12-17T08:10:52;-5.50;99.90
60701;DHT22;46541;49.894;10.886;2022-12-17T08:13:38;-5.30;99.90
60701;DHT22;46541;49.894;10.886;2022-12-17T08:16:23;-5.40;99.90
60701;DHT22;46541;49.894;10.886;2022-12-17T08:19:10;-5.30;99.90
60701;DHT22;46541;49.894;10.886;2022-12-17T08:21:56;-5.30;99.90
60701;DHT22;46541;49.894;10.886;2022-12-17T08:24:41;-5.30;99.90
60701;DHT22;46541;49.894;10.886;2022-12-17T08:27:27;-5.30;99.90
60701;DHT22;46541;49.894;10.886;2022-12-17T08:30:12;-5.20;99.90
60701;DHT22;46541;49.894;10.886;2022-12-17T08:33:02;-5.10;99.90
60701;DHT22;46541;49.894;10.886;2022-12-17T08:35:52;-5.10;99.90
60701;DHT22;46541;49.894;10.886;2022-12-17T08:38:37;-5.00;99.90
60701;DHT22;46541;49.894;10.886;2022-12-17T08:41:23;-5.00;99.90
60701;DHT22;46541;49.894;10.886;2022-12-17T08:44:08;-5.00;99.90
60701;DHT22;46541;49.894;10.886;2022-12-17T08:46:54;-4.90;99.90
60701;DHT22;46541;49.894;10.886;2022-12-17T08:49:39;-4.80;99.90
60701;DHT22;46541;49.894;10.886;2022-12-17T08:52:25;-4.70;99.90
60701;DHT22;46541;49.894;10.886;2022-12-17T08:55:10;-4.70;99.90
60701;DHT22;46541;49.894;10.886;2022-12-17T08:57:57;-4.70;99.90
60701;DHT22;46541;49.894;10.886;2022-12-17T09:00:43;-4.70;99.90
60701;DHT22;46541;49.894;10.886;2022-12-17T09:03:29;-4.80;99.90
60701;DHT22;46541;49.894;10.886;2022-12-17T09:06:14;-4.80;99.90
60701;DHT22;46541;49.894;10.886;2022-12-17T09:09:04;-4.80;99.90
60701;DHT22;46541;49.894;10.886;2022-12-17T09:11:50;-4.80;99.90
60701;DHT22;46541;49.894;10.886;2022-12-17T09:14:35;-4.80;99.90
60701;DHT22;46541;49.894;10.886;2022-12-17T09:17:21;-4.70;99.90
60701;DHT22;46541;49.894;10.886;2022-12-17T09:20:07;-4.70;99.90
60701;DHT22;46541;49.894;10.886;2022-12-17T09:22:55;-4.60;99.90
60701;DHT22;46541;49.894;10.886;2022-12-17T09:25:41;-4.50;99.90
60701;DHT22;46541;49.894;10.886;2022-12-17T09:28:26;-4.50;99.90
60701;DHT22;46541;49.894;10.886;2022-12-17T09:31:11;-4.40;99.90
60701;DHT22;46541;49.894;10.886;2022-12-17T09:34:02;-4.30;99.90
60701;DHT22;46541;49.894;10.886;2022-12-17T09:36:48;-4.10;99.90
60701;DHT22;46541;49.894;10.886;2022-12-17T09:39:33;-4.00;99.90
60701;DHT22;46541;49.894;10.886;2022-12-17T09:42:41;-3.90;99.90
60701;DHT22;46541;49.894;10.886;2022-12-17T09:45:53;-3.80;99.90
60701;DHT22;46541;49.894;10.886;2022-12-17T09:49:00;-3.70;99.90
60701;DHT22;46541;49.894;10.886;2022-12-17T09:51:47;-3.60;99.90
60701;DHT22;46541;49.894;10.886;2022-12-17T09:54:42;-3.90;99.90
60701;DHT22;46541;49.894;10.886;2022-12-17T09:57:33;-4.30;99.90
60701;DHT22;46541;49.894;10.886;2022-12-17T10:00:22;-4.60;99.90
60701;DHT22;46541;49.894;10.886;2022-12-17T10:03:19;-4.70;99.90
60701;DHT22;46541;49.894;10.886;2022-12-17T10:06:18;-4.70;99.90
60701;DHT22;46541;49.894;10.886;2022-12-17T10:09:12;-4.60;99.90
60701;DHT22;46541;49.894;10.886;2022-12-17T10:12:27;-4.50;99.90
60701;DHT22;46541;49.894;10.886;2022-12-17T10:15:13;-4.20;99.90
60701;DHT22;46541;49.894;10.886;2022-12-17T10:18:08;-3.90;99.90
60701;DHT22;46541;49.894;10.886;2022-12-17T10:21:00;-3.70;99.90
60701;DHT22;46541;49.894;10.886;2022-12-17T10:23:46;-3.50;99.90
60701;DHT22;46541;49.894;10.886;2022-12-17T10:26:33;-3.30;99.90
60701;DHT22;46541;49.894;10.886;2022-12-17T10:29:22;-3.10;99.90
60701;DHT22;46541;49.894;10.886;2022-12-17T10:35:07;-3.00;99.90
60701;DHT22;46541;49.894;10.886;2022-12-17T10:37:53;-2.90;99.90
60701;DHT22;46541;49.894;10.886;2022-12-17T10:40:39;-2.70;99.90
60701;DHT22;46541;49.894;10.886;2022-12-17T10:43:33;-2.60;99.90
60701;DHT22;46541;49.894;10.886;2022-12-17T10:46:26;-2.40;99.90
60701;DHT22;46541;49.894;10.886;2022-12-17T10:49:20;-2.30;99.90
60701;DHT22;46541;49.894;10.886;2022-12-17T10:52:28;-2.20;99.90
60701;DHT22;46541;49.894;10.886;2022-12-17T10:55:28;-2.10;99.90
60701;DHT22;46541;49.894;10.886;2022-12-17T10:58:22;-2.00;99.90
60701;DHT22;46541;49.894;10.886;2022-12-17T11:01:10;-1.90;99.90
60701;DHT22;46541;49.894;10.886;2022-12-17T11:03:57;-1.90;99.90
60701;DHT22;46541;49.894;10.886;2022-12-17T11:06:49;-1.80;99.90
60701;DHT22;46541;49.894;10.886;2022-12-17T11:09:47;-1.70;99.90
60701;DHT22;46541;49.894;10.886;2022-12-17T11:12:44;-1.70;99.90
60701;DHT22;46541;49.894;10.886;2022-12-17T11:15:37;-1.70;99.90
60701;DHT22;46541;49.894;10.886;2022-12-17T11:18:39;-1.60;99.90
60701;DHT22;46541;49.894;10.886;2022-12-17T11:21:36;-1.50;99.90
60701;DHT22;46541;49.894;10.886;2022-12-17T11:24:31;-1.40;99.90
60701;DHT22;46541;49.894;10.886;2022-12-17T11:27:23;-1.20;99.90
60701;DHT22;46541;49.894;10.886;2022-12-17T11:30:13;-1.20;99.90
60701;DHT22;46541;49.894;10.886;2022-12-17T11:36:20;-1.00;99.90
60701;DHT22;46541;49.894;10.886;2022-12-17T11:42:23;-0.80;99.90
60701;DHT22;46541;49.894;10.886;2022-12-17T11:48:43;-0.70;99.90
60701;DHT22;46541;49.894;10.886;2022-12-17T11:51:46;-0.60;99.90
60701;DHT22;46541;49.894;10.886;2022-12-17T12:00:21;-0.60;99.90
60701;DHT22;46541;49.894;10.886;2022-12-17T12:03:41;-0.50;99.90
60701;DHT22;46541;49.894;10.886;2022-12-17T12:09:58;-0.40;99.90
60701;DHT22;46541;49.894;10.886;2022-12-17T12:19:20;-0.30;99.90
60701;DHT22;46541;49.894;10.886;2022-12-17T12:22:16;-0.30;99.90
60701;DHT22;46541;49.894;10.886;2022-12-17T12:25:17;-0.40;99.90
60701;DHT22;46541;49.894;10.886;2022-12-17T12:28:18;-0.30;99.90
60701;DHT22;46541;49.894;10.886;2022-12-17T12:34:24;-0.30;99.90
60701;DHT22;46541;49.894;10.886;2022-12-17T12:37:14;-0.30;99.90
60701;DHT22;46541;49.894;10.886;2022-12-17T12:40:06;-0.40;99.90
60701;DHT22;46541;49.894;10.886;2022-12-17T12:46:14;-0.30;99.90
60701;DHT22;46541;49.894;10.886;2022-12-17T12:49:07;-0.30;99.90
60701;DHT22;46541;49.894;10.886;2022-12-17T12:51:58;-0.30;99.90
60701;DHT22;46541;49.894;10.886;2022-12-17T12:57:54;-0.30;99.90
60701;DHT22;46541;49.894;10.886;2022-12-17T13:06:39;-0.40;99.90
60701;DHT22;46541;49.894;10.886;2022-12-17T13:11:55;-0.40;99.90
60701;DHT22;46541;49.894;10.886;2022-12-17T13:17:35;-0.50;99.90
60701;DHT22;46541;49.894;10.886;2022-12-17T13:20:26;-0.50;99.90
60701;DHT22;46541;49.894;10.886;2022-12-17T13:25:35;-0.50;99.90
60701;DHT22;46541;49.894;10.886;2022-12-17T13:28:02;-0.60;99.90
60701;DHT22;46541;49.894;10.886;2022-12-17T13:30:36;-0.60;99.90
60701;DHT22;46541;49.894;10.886;2022-12-17T13:35:55;-0.60;99.90
60701;DHT22;46541;49.894;10.886;2022-12-17T13:41:14;-0.70;99.90
60701;DHT22;46541;49.894;10.886;2022-12-17T13:43:56;-0.70;99.90
60701;DHT22;46541;49.894;10.886;2022-12-17T13:49:00;-0.70;99.90
60701;DHT22;46541;49.894;10.886;2022-12-17T13:51:32;-0.70;99.90
60701;DHT22;46541;49.894;10.886;2022-12-17T13:54:01;-0.70;99.90
60701;DHT22;46541;49.894;10.886;2022-12-17T13:56:31;-0.80;99.90
60701;DHT22;46541;49.894;10.886;2022-12-17T13:58:59;-0.90;99.90
60701;DHT22;46541;49.894;10.886;2022-12-17T14:01:46;-0.90;99.90
60701;DHT22;46541;49.894;10.886;2022-12-17T14:04:24;-0.90;99.90
60701;DHT22;46541;49.894;10.886;2022-12-17T14:06:52;-0.90;99.90
60701;DHT22;46541;49.894;10.886;2022-12-17T14:09:22;-0.90;99.90
60701;DHT22;46541;49.894;10.886;2022-12-17T14:11:50;-1.00;99.90
60701;DHT22;46541;49.894;10.886;2022-12-17T14:14:37;-1.00;99.90
60701;DHT22;46541;49.894;10.886;2022-12-17T14:17:06;-1.00;99.90
60701;DHT22;46541;49.894;10.886;2022-12-17T14:19:40;-1.00;99.90
60701;DHT22;46541;49.894;10.886;2022-12-17T14:22:11;-1.00;99.90
60701;DHT22;46541;49.894;10.886;2022-12-17T14:24:42;-1.10;99.90
60701;DHT22;46541;49.894;10.886;2022-12-17T14:27:29;-1.10;99.90
60701;DHT22;46541;49.894;10.886;2022-12-17T14:29:56;-1.10;99.90
60701;DHT22;46541;49.894;10.886;2022-12-17T14:32:29;-1.10;99.90
60701;DHT22;46541;49.894;10.886;2022-12-17T14:34:57;-1.20;99.90
60701;DHT22;46541;49.894;10.886;2022-12-17T14:37:27;-1.20;99.90
60701;DHT22;46541;49.894;10.886;2022-12-17T14:40:02;-1.20;99.90
60701;DHT22;46541;49.894;10.886;2022-12-17T14:42:34;-1.30;99.90
60701;DHT22;46541;49.894;10.886;2022-12-17T14:45:05;-1.30;99.90
60701;DHT22;46541;49.894;10.886;2022-12-17T14:47:36;-1.30;99.90
60701;DHT22;46541;49.894;10.886;2022-12-17T14:52:42;-1.30;99.90
60701;DHT22;46541;49.894;10.886;2022-12-17T14:57:52;-1.40;99.90
60701;DHT22;46541;49.894;10.886;2022-12-17T15:00:19;-1.40;99.90
60701;DHT22;46541;49.894;10.886;2022-12-17T15:02:51;-1.40;99.90
60701;DHT22;46541;49.894;10.886;2022-12-17T15:05:20;-1.50;99.90
60701;DHT22;46541;49.894;10.886;2022-12-17T15:07:46;-1.50;99.90
60701;DHT22;46541;49.894;10.886;2022-12-17T15:10:17;-1.40;99.90
60701;DHT22;46541;49.894;10.886;2022-12-17T15:12:45;-1.40;99.90
60701;DHT22;46541;49.894;10.886;2022-12-17T15:15:14;-1.50;99.90
60701;DHT22;46541;49.894;10.886;2022-12-17T15:17:41;-1.50;99.90
60701;DHT22;46541;49.894;10.886;2022-12-17T15:20:18;-1.60;99.90
60701;DHT22;46541;49.894;10.886;2022-12-17T15:22:46;-1.60;99.90
60701;DHT22;46541;49.894;10.886;2022-12-17T15:25:16;-1.60;99.90
60701;DHT22;46541;49.894;10.886;2022-12-17T15:27:43;-1.70;99.90
60701;DHT22;46541;49.894;10.886;2022-12-17T15:30:15;-1.70;99.90
60701;DHT22;46541;49.894;10.886;2022-12-17T15:32:42;-1.70;99.90
60701;DHT22;46541;49.894;10.886;2022-12-17T15:35:11;-1.70;99.90
60701;DHT22;46541;49.894;10.886;2022-12-17T15:37:38;-1.70;99.90
60701;DHT22;46541;49.894;10.886;2022-12-17T15:40:06;-1.70;99.90
60701;DHT22;46541;49.894;10.886;2022-12-17T15:42:32;-1.70;99.90
60701;DHT22;46541;49.894;10.886;2022-12-17T15:45:18;-1.70;99.90
60701;DHT22;46541;49.894;10.886;2022-12-17T15:47:44;-1.70;99.90
60701;DHT22;46541;49.894;10.886;2022-12-17T15:50:12;-1.80;99.90
60701;DHT22;46541;49.894;10.886;2022-12-17T15:52:39;-1.80;99.90
60701;DHT22;46541;49.894;10.886;2022-12-17T15:55:06;-1.80;99.90
60701;DHT22;46541;49.894;10.886;2022-12-17T15:57:33;-1.90;99.90
60701;DHT22;46541;49.894;10.886;2022-12-17T15:59:59;-1.90;99.90
60701;DHT22;46541;49.894;10.886;2022-12-17T16:02:26;-2.00;99.90
60701;DHT22;46541;49.894;10.886;2022-12-17T16:04:53;-2.00;99.90
60701;DHT22;46541;49.894;10.886;2022-12-17T16:07:20;-2.10;99.90
60701;DHT22;46541;49.894;10.886;2022-12-17T16:09:47;-2.10;99.90
60701;DHT22;46541;49.894;10.886;2022-12-17T16:12:13;-2.10;99.90
60701;DHT22;46541;49.894;10.886;2022-12-17T16:14:40;-2.10;99.90
60701;DHT22;46541;49.894;10.886;2022-12-17T16:17:07;-2.10;99.90
60701;DHT22;46541;49.894;10.886;2022-12-17T16:19:34;-2.20;99.90
60701;DHT22;46541;49.894;10.886;2022-12-17T16:22:01;-2.20;99.90
60701;DHT22;46541;49.894;10.886;2022-12-17T16:24:28;-2.20;99.90
60701;DHT22;46541;49.894;10.886;2022-12-17T16:26:55;-2.20;99.90
60701;DHT22;46541;49.894;10.886;2022-12-17T16:29:29;-2.20;99.90
60701;DHT22;46541;49.894;10.886;2022-12-17T16:31:56;-2.20;99.90
60701;DHT22;46541;49.894;10.886;2022-12-17T16:34:23;-2.20;99.90
60701;DHT22;46541;49.894;10.886;2022-12-17T16:36:50;-2.30;99.90
60701;DHT22;46541;49.894;10.886;2022-12-17T16:39:18;-2.30;99.90
60701;DHT22;46541;49.894;10.886;2022-12-17T16:41:45;-2.30;99.90
60701;DHT22;46541;49.894;10.886;2022-12-17T16:44:12;-2.30;99.90
60701;DHT22;46541;49.894;10.886;2022-12-17T16:46:40;-2.30;99.90
60701;DHT22;46541;49.894;10.886;2022-12-17T16:49:20;-2.30;99.90
60701;DHT22;46541;49.894;10.886;2022-12-17T16:51:51;-2.30;99.90
60701;DHT22;46541;49.894;10.886;2022-12-17T16:54:21;-2.30;99.90
60701;DHT22;46541;49.894;10.886;2022-12-17T16:56:48;-2.30;99.90
60701;DHT22;46541;49.894;10.886;2022-12-17T16:59:15;-2.20;99.90
60701;DHT22;46541;49.894;10.886;2022-12-17T17:01:45;-2.20;99.90
60701;DHT22;46541;49.894;10.886;2022-12-17T17:04:14;-2.20;99.90
60701;DHT22;46541;49.894;10.886;2022-12-17T17:06:46;-2.20;99.90
60701;DHT22;46541;49.894;10.886;2022-12-17T17:09:14;-2.30;99.90
60701;DHT22;46541;49.894;10.886;2022-12-17T17:11:41;-2.40;99.90
60701;DHT22;46541;49.894;10.886;2022-12-17T17:14:15;-2.40;99.90
60701;DHT22;46541;49.894;10.886;2022-12-17T17:16:42;-2.50;99.90
60701;DHT22;46541;49.894;10.886;2022-12-17T17:19:08;-2.50;99.90
60701;DHT22;46541;49.894;10.886;2022-12-17T17:21:40;-2.50;99.90
60701;DHT22;46541;49.894;10.886;2022-12-17T17:24:12;-2.50;99.90
60701;DHT22;46541;49.894;10.886;2022-12-17T17:26:47;-2.40;99.90
60701;DHT22;46541;49.894;10.886;2022-12-17T17:29:14;-2.50;99.90
60701;DHT22;46541;49.894;10.886;2022-12-17T17:31:42;-2.50;99.90
60701;DHT22;46541;49.894;10.886;2022-12-17T17:34:28;-2.40;99.90
60701;DHT22;46541;49.894;10.886;2022-12-17T17:36:55;-2.40;99.90
60701;DHT22;46541;49.894;10.886;2022-12-17T17:39:22;-2.50;99.90
60701;DHT22;46541;49.894;10.886;2022-12-17T17:41:48;-2.50;99.90
60701;DHT22;46541;49.894;10.886;2022-12-17T17:44:15;-2.60;99.90
60701;DHT22;46541;49.894;10.886;2022-12-17T17:46:42;-2.60;99.90
60701;DHT22;46541;49.894;10.886;2022-12-17T17:49:09;-2.60;99.90
60701;DHT22;46541;49.894;10.886;2022-12-17T17:51:39;-2.70;99.90
60701;DHT22;46541;49.894;10.886;2022-12-17T17:54:27;-2.80;99.90
60701;DHT22;46541;49.894;10.886;2022-12-17T17:56:53;-2.80;99.90
60701;DHT22;46541;49.894;10.886;2022-12-17T17:59:20;-2.80;99.90
60701;DHT22;46541;49.894;10.886;2022-12-17T18:01:56;-2.80;99.90
60701;DHT22;46541;49.894;10.886;2022-12-17T18:04:23;-2.90;99.90
60701;DHT22;46541;49.894;10.886;2022-12-17T18:06:50;-2.90;99.90
60701;DHT22;46541;49.894;10.886;2022-12-17T18:09:38;-2.90;99.90
60701;DHT22;46541;49.894;10.886;2022-12-17T18:12:04;-2.90;99.90
60701;DHT22;46541;49.894;10.886;2022-12-17T18:14:51;-2.90;99.90